createdAt,value
2016-11-03T00:00:09.225Z,994.6
2016-11-03T00:00:29.767Z,994.6
2016-11-03T00:00:50.329Z,994.6
2016-11-03T00:01:10.891Z,994.6
2016-11-03T00:01:31.442Z,994.6
2016-11-03T00:01:52.064Z,994.6
2016-11-03T00:02:12.598Z,994.6
2016-11-03T00:02:33.150Z,994.7
2016-11-03T00:02:53.699Z,994.6
2016-11-03T00:03:14.230Z,994.6
2016-11-03T00:03:34.811Z,994.6
2016-11-03T00:03:55.378Z,994.6
2016-11-03T00:04:15.942Z,994.6
2016-11-03T00:04:36.501Z,994.6
2016-11-03T00:04:57.039Z,994.6
2016-11-03T00:05:17.630Z,994.6
2016-11-03T00:05:38.239Z,994.6
2016-11-03T00:05:58.841Z,994.6
2016-11-03T00:06:19.392Z,994.7
2016-11-03T00:06:39.978Z,994.6
2016-11-03T00:07:00.529Z,994.7
2016-11-03T00:07:21.082Z,994.7
2016-11-03T00:07:41.632Z,994.7
2016-11-03T00:08:02.210Z,994.7
2016-11-03T00:08:22.792Z,994.7
2016-11-03T00:08:43.380Z,994.7
2016-11-03T00:09:03.916Z,994.7
2016-11-03T00:09:24.481Z,994.7
2016-11-03T00:09:45.034Z,994.7
2016-11-03T00:10:05.626Z,994.7
2016-11-03T00:10:26.193Z,994.7
2016-11-03T00:10:46.742Z,994.7
2016-11-03T00:11:07.292Z,994.7
2016-11-03T00:11:27.835Z,994.7
2016-11-03T00:11:48.387Z,994.7
2016-11-03T00:12:08.927Z,994.7
2016-11-03T00:12:29.493Z,994.7
2016-11-03T00:12:50.132Z,994.7
2016-11-03T00:13:10.687Z,994.7
2016-11-03T00:13:31.315Z,994.7
2016-11-03T00:13:51.874Z,994.7
2016-11-03T00:14:12.410Z,994.7
2016-11-03T00:14:32.971Z,994.7
2016-11-03T00:14:53.524Z,994.7
2016-11-03T00:15:14.053Z,994.7
2016-11-03T00:15:34.671Z,994.7
2016-11-03T00:15:55.270Z,994.7
2016-11-03T00:16:15.841Z,994.7
2016-11-03T00:16:36.388Z,994.7
2016-11-03T00:16:56.922Z,994.7
2016-11-03T00:17:17.467Z,994.7
2016-11-03T00:17:38.053Z,994.7
2016-11-03T00:17:58.588Z,994.7
2016-11-03T00:18:19.131Z,994.7
2016-11-03T00:18:39.662Z,994.7
2016-11-03T00:19:00.206Z,994.7
2016-11-03T00:19:20.752Z,994.7
2016-11-03T00:19:41.295Z,994.7
2016-11-03T00:20:01.874Z,994.7
2016-11-03T00:20:22.420Z,994.7
2016-11-03T00:20:43.015Z,994.7
2016-11-03T00:21:03.580Z,994.7
2016-11-03T00:21:24.147Z,994.7
2016-11-03T00:21:44.710Z,994.7
2016-11-03T00:22:05.252Z,994.7
2016-11-03T00:22:25.800Z,994.7
2016-11-03T00:22:46.420Z,994.7
2016-11-03T00:23:06.961Z,994.7
2016-11-03T00:23:27.502Z,994.7
2016-11-03T00:23:48.045Z,994.7
2016-11-03T00:24:08.631Z,994.7
2016-11-03T00:24:29.196Z,994.8
2016-11-03T00:24:49.732Z,994.7
2016-11-03T00:25:10.316Z,994.7
2016-11-03T00:25:30.854Z,994.7
2016-11-03T00:25:51.385Z,994.7
2016-11-03T00:26:11.927Z,994.7
2016-11-03T00:26:32.475Z,994.7
2016-11-03T00:26:53.023Z,994.7
2016-11-03T00:27:13.564Z,994.7
2016-11-03T00:27:34.146Z,994.7
2016-11-03T00:27:54.692Z,994.8
2016-11-03T00:28:15.226Z,994.7
2016-11-03T00:28:35.772Z,994.7
2016-11-03T00:28:56.317Z,994.7
2016-11-03T00:29:16.897Z,994.7
2016-11-03T00:29:37.455Z,994.7
2016-11-03T00:29:58.011Z,994.8
2016-11-03T00:30:18.599Z,994.8
2016-11-03T00:30:39.147Z,994.8
2016-11-03T00:30:59.696Z,994.7
2016-11-03T00:31:20.237Z,994.8
2016-11-03T00:31:40.841Z,994.7
2016-11-03T00:32:01.404Z,994.8
2016-11-03T00:32:21.944Z,994.8
2016-11-03T00:32:42.480Z,994.8
2016-11-03T00:33:03.050Z,994.8
2016-11-03T00:33:23.607Z,994.8
2016-11-03T00:33:44.202Z,994.8
2016-11-03T00:34:04.750Z,994.8
2016-11-03T00:34:25.320Z,994.8
2016-11-03T00:34:45.875Z,994.8
2016-11-03T00:35:06.433Z,994.8
2016-11-03T00:35:27.002Z,994.8
2016-11-03T00:35:47.594Z,994.8
2016-11-03T00:36:08.146Z,994.8
2016-11-03T00:36:28.720Z,994.8
2016-11-03T00:36:49.268Z,994.9
2016-11-03T00:37:09.847Z,994.9
2016-11-03T00:37:30.422Z,994.8
2016-11-03T00:37:51.019Z,994.8
2016-11-03T00:38:11.576Z,994.9
2016-11-03T00:38:32.121Z,994.8
2016-11-03T00:38:52.667Z,994.8
2016-11-03T00:39:13.201Z,994.9
2016-11-03T00:39:33.763Z,994.9
2016-11-03T00:39:54.366Z,994.9
2016-11-03T00:40:14.936Z,994.8
2016-11-03T00:40:35.495Z,994.9
2016-11-03T00:40:56.033Z,994.8
2016-11-03T00:41:16.586Z,994.9
2016-11-03T00:41:37.145Z,994.9
2016-11-03T00:41:57.736Z,994.9
2016-11-03T00:42:18.280Z,994.9
2016-11-03T00:42:38.827Z,994.9
2016-11-03T00:42:59.408Z,994.9
2016-11-03T00:43:19.941Z,994.9
2016-11-03T00:43:40.471Z,994.9
2016-11-03T00:44:01.060Z,994.9
2016-11-03T00:44:21.632Z,995
2016-11-03T00:44:42.178Z,994.9
2016-11-03T00:45:02.719Z,994.9
2016-11-03T00:45:23.307Z,994.9
2016-11-03T00:45:43.910Z,994.9
2016-11-03T00:46:04.452Z,994.9
2016-11-03T00:46:24.999Z,995
2016-11-03T00:46:45.552Z,995
2016-11-03T00:47:06.133Z,995
2016-11-03T00:47:26.713Z,995
2016-11-03T00:47:47.298Z,995
2016-11-03T00:48:07.877Z,995
2016-11-03T00:48:28.495Z,995
2016-11-03T00:48:49.069Z,995
2016-11-03T00:49:09.663Z,995
2016-11-03T00:49:30.275Z,994.9
2016-11-03T00:49:50.863Z,994.9
2016-11-03T00:50:11.402Z,995
2016-11-03T00:50:31.959Z,995
2016-11-03T00:50:52.526Z,995
2016-11-03T00:51:13.075Z,995
2016-11-03T00:51:33.611Z,995
2016-11-03T00:51:54.153Z,995
2016-11-03T00:52:14.740Z,995
2016-11-03T00:52:35.321Z,995
2016-11-03T00:52:55.893Z,994.9
2016-11-03T00:53:16.457Z,995
2016-11-03T00:53:37.031Z,995
2016-11-03T00:53:57.588Z,995
2016-11-03T00:54:18.153Z,995
2016-11-03T00:54:38.737Z,995
2016-11-03T00:54:59.319Z,995
2016-11-03T00:55:19.870Z,995
2016-11-03T00:55:40.464Z,995
2016-11-03T00:56:01.001Z,995
2016-11-03T00:56:21.553Z,995
2016-11-03T00:56:42.131Z,995
2016-11-03T00:57:02.730Z,995
2016-11-03T00:57:23.278Z,995
2016-11-03T00:57:43.857Z,995
2016-11-03T00:58:04.409Z,995
2016-11-03T00:58:24.949Z,995
2016-11-03T00:58:45.509Z,995
2016-11-03T00:59:06.048Z,995
2016-11-03T00:59:26.594Z,995
2016-11-03T00:59:47.146Z,995
2016-11-03T01:00:07.715Z,995
2016-11-03T01:00:28.258Z,995
2016-11-03T01:00:48.903Z,995
2016-11-03T01:01:09.444Z,995
2016-11-03T01:01:29.994Z,995
2016-11-03T01:01:50.580Z,995.1
2016-11-03T01:02:11.117Z,995.1
2016-11-03T01:02:31.690Z,995.1
2016-11-03T01:02:52.224Z,995.1
2016-11-03T01:03:12.762Z,995.1
2016-11-03T01:03:33.311Z,995.1
2016-11-03T01:03:53.869Z,995.1
2016-11-03T01:04:14.416Z,995.1
2016-11-03T01:04:34.951Z,995.1
2016-11-03T01:04:55.515Z,995.1
2016-11-03T01:05:16.074Z,995.1
2016-11-03T01:05:36.617Z,995.1
2016-11-03T01:05:57.170Z,995.1
2016-11-03T01:06:17.727Z,995.1
2016-11-03T01:06:38.343Z,995.1
2016-11-03T01:06:58.913Z,995.2
2016-11-03T01:07:19.459Z,995.1
2016-11-03T01:07:40.010Z,995.1
2016-11-03T01:08:00.556Z,995.1
2016-11-03T01:08:21.131Z,995.1
2016-11-03T01:08:41.759Z,995.1
2016-11-03T01:09:02.296Z,995.1
2016-11-03T01:09:22.841Z,995.1
2016-11-03T01:09:43.410Z,995.1
2016-11-03T01:10:03.959Z,995.1
2016-11-03T01:10:24.519Z,995.1
2016-11-03T01:10:45.105Z,995.1
2016-11-03T01:11:05.643Z,995.2
2016-11-03T01:11:26.200Z,995.1
2016-11-03T01:11:46.750Z,995.1
2016-11-03T01:12:07.293Z,995.1
2016-11-03T01:12:27.841Z,995.1
2016-11-03T01:12:48.409Z,995.1
2016-11-03T01:13:09.016Z,995.1
2016-11-03T01:13:29.564Z,995.1
2016-11-03T01:13:50.105Z,995.1
2016-11-03T01:14:10.649Z,995.1
2016-11-03T01:14:31.265Z,995.1
2016-11-03T01:14:51.821Z,995.1
2016-11-03T01:15:12.387Z,995.1
2016-11-03T01:15:32.929Z,995.1
2016-11-03T01:15:53.531Z,995.1
2016-11-03T01:16:14.116Z,995.1
2016-11-03T01:16:34.669Z,995.1
2016-11-03T01:16:55.216Z,995.1
2016-11-03T01:17:15.796Z,995.2
2016-11-03T01:17:36.340Z,995.2
2016-11-03T01:17:56.938Z,995.2
2016-11-03T01:18:17.471Z,995.1
2016-11-03T01:18:38.010Z,995.2
2016-11-03T01:18:58.548Z,995.2
2016-11-03T01:19:19.121Z,995.2
2016-11-03T01:19:39.744Z,995.2
2016-11-03T01:20:00.305Z,995.2
2016-11-03T01:20:20.890Z,995.1
2016-11-03T01:20:41.422Z,995.2
2016-11-03T01:21:01.977Z,995.2
2016-11-03T01:21:22.566Z,995.2
2016-11-03T01:21:43.131Z,995.2
2016-11-03T01:22:03.665Z,995.2
2016-11-03T01:22:24.211Z,995.2
2016-11-03T01:22:44.762Z,995.2
2016-11-03T01:23:05.327Z,995.2
2016-11-03T01:23:25.894Z,995.2
2016-11-03T01:23:46.440Z,995.2
2016-11-03T01:24:07.028Z,995.2
2016-11-03T01:24:27.641Z,995.2
2016-11-03T01:24:48.196Z,995.2
2016-11-03T01:25:08.777Z,995.2
2016-11-03T01:25:29.360Z,995.1
2016-11-03T01:25:49.964Z,995.2
2016-11-03T01:26:10.566Z,995.1
2016-11-03T01:26:31.145Z,995.2
2016-11-03T01:26:51.722Z,995.1
2016-11-03T01:27:12.277Z,995.1
2016-11-03T01:27:32.821Z,995.1
2016-11-03T01:27:53.369Z,995.1
2016-11-03T01:28:13.900Z,995.1
2016-11-03T01:28:34.445Z,995.1
2016-11-03T01:28:54.982Z,995.1
2016-11-03T01:29:15.525Z,995.2
2016-11-03T01:29:36.079Z,995.2
2016-11-03T01:29:56.614Z,995.2
2016-11-03T01:30:17.180Z,995.1
2016-11-03T01:30:37.736Z,995.2
2016-11-03T01:30:58.284Z,995.2
2016-11-03T01:31:18.823Z,995.2
2016-11-03T01:31:39.369Z,995.2
2016-11-03T01:31:59.929Z,995.2
2016-11-03T01:32:20.468Z,995.2
2016-11-03T01:32:41.058Z,995.1
2016-11-03T01:33:01.605Z,995.2
2016-11-03T01:33:22.163Z,995.2
2016-11-03T01:33:42.734Z,995.2
2016-11-03T01:34:03.271Z,995.2
2016-11-03T01:34:23.823Z,995.2
2016-11-03T01:34:44.372Z,995.2
2016-11-03T01:35:04.947Z,995.2
2016-11-03T01:35:25.500Z,995.2
2016-11-03T01:35:46.054Z,995.2
2016-11-03T01:36:06.587Z,995.2
2016-11-03T01:36:27.125Z,995.2
2016-11-03T01:36:47.707Z,995.2
2016-11-03T01:37:08.259Z,995.2
2016-11-03T01:37:28.799Z,995.2
2016-11-03T01:37:49.355Z,995.2
2016-11-03T01:38:09.975Z,995.2
2016-11-03T01:38:30.529Z,995.2
2016-11-03T01:38:51.078Z,995.2
2016-11-03T01:39:11.619Z,995.2
2016-11-03T01:39:32.153Z,995.2
2016-11-03T01:39:52.788Z,995.2
2016-11-03T01:40:13.321Z,995.2
2016-11-03T01:40:33.898Z,995.2
2016-11-03T01:40:54.475Z,995.2
2016-11-03T01:41:15.017Z,995.2
2016-11-03T01:41:35.565Z,995.2
2016-11-03T01:41:56.113Z,995.2
2016-11-03T01:42:16.638Z,995.2
2016-11-03T01:42:37.178Z,995.2
2016-11-03T01:42:57.739Z,995.2
2016-11-03T01:43:18.349Z,995.2
2016-11-03T01:43:38.881Z,995.2
2016-11-03T01:43:59.475Z,995.2
2016-11-03T01:44:20.029Z,995.3
2016-11-03T01:44:40.603Z,995.3
2016-11-03T01:45:01.130Z,995.3
2016-11-03T01:45:21.711Z,995.3
2016-11-03T01:45:42.296Z,995.2
2016-11-03T01:46:02.838Z,995.3
2016-11-03T01:46:23.390Z,995.3
2016-11-03T01:46:43.925Z,995.3
2016-11-03T01:47:04.470Z,995.3
2016-11-03T01:47:25.031Z,995.3
2016-11-03T01:47:45.602Z,995.3
2016-11-03T01:48:06.206Z,995.2
2016-11-03T01:48:26.782Z,995.3
2016-11-03T01:48:47.389Z,995.3
2016-11-03T01:49:07.941Z,995.3
2016-11-03T01:49:28.488Z,995.3
2016-11-03T01:49:49.053Z,995.3
2016-11-03T01:50:09.634Z,995.3
2016-11-03T01:50:30.195Z,995.3
2016-11-03T01:50:50.774Z,995.3
2016-11-03T01:51:11.320Z,995.3
2016-11-03T01:51:31.877Z,995.3
2016-11-03T01:51:52.435Z,995.3
2016-11-03T01:52:12.977Z,995.3
2016-11-03T01:52:33.508Z,995.4
2016-11-03T01:52:54.057Z,995.3
2016-11-03T01:53:14.602Z,995.3
2016-11-03T01:53:35.224Z,995.3
2016-11-03T01:53:55.763Z,995.3
2016-11-03T01:54:16.319Z,995.3
2016-11-03T01:54:36.860Z,995.4
2016-11-03T01:54:57.400Z,995.4
2016-11-03T01:55:17.955Z,995.4
2016-11-03T01:55:38.479Z,995.3
2016-11-03T01:55:59.053Z,995.4
2016-11-03T01:56:19.625Z,995.4
2016-11-03T01:56:40.162Z,995.3
2016-11-03T01:57:00.705Z,995.4
2016-11-03T01:57:21.307Z,995.4
2016-11-03T01:57:41.849Z,995.4
2016-11-03T01:58:02.380Z,995.4
2016-11-03T01:58:22.957Z,995.4
2016-11-03T01:58:43.532Z,995.4
2016-11-03T01:59:04.097Z,995.4
2016-11-03T01:59:24.636Z,995.4
2016-11-03T01:59:45.183Z,995.4
2016-11-03T02:00:05.726Z,995.4
2016-11-03T02:00:26.248Z,995.5
2016-11-03T02:00:46.838Z,995.5
2016-11-03T02:01:07.398Z,995.5
2016-11-03T02:01:27.952Z,995.4
2016-11-03T02:01:48.517Z,995.4
2016-11-03T02:02:09.053Z,995.5
2016-11-03T02:02:29.577Z,995.5
2016-11-03T02:02:50.169Z,995.4
2016-11-03T02:03:10.708Z,995.5
2016-11-03T02:03:31.273Z,995.4
2016-11-03T02:03:51.849Z,995.5
2016-11-03T02:04:12.428Z,995.5
2016-11-03T02:04:32.991Z,995.5
2016-11-03T02:04:53.534Z,995.5
2016-11-03T02:05:14.105Z,995.5
2016-11-03T02:05:34.653Z,995.5
2016-11-03T02:05:55.237Z,995.4
2016-11-03T02:06:15.775Z,995.5
2016-11-03T02:06:36.363Z,995.5
2016-11-03T02:06:56.901Z,995.5
2016-11-03T02:07:17.463Z,995.5
2016-11-03T02:07:38.027Z,995.5
2016-11-03T02:07:58.588Z,995.5
2016-11-03T02:08:19.137Z,995.5
2016-11-03T02:08:39.687Z,995.5
2016-11-03T02:09:00.286Z,995.5
2016-11-03T02:09:20.827Z,995.5
2016-11-03T02:09:41.354Z,995.5
2016-11-03T02:10:01.938Z,995.5
2016-11-03T02:10:22.474Z,995.6
2016-11-03T02:10:43.116Z,995.5
2016-11-03T02:11:03.657Z,995.5
2016-11-03T02:11:24.205Z,995.5
2016-11-03T02:11:44.833Z,995.6
2016-11-03T02:12:05.362Z,995.6
2016-11-03T02:12:25.941Z,995.6
2016-11-03T02:12:46.482Z,995.6
2016-11-03T02:13:07.037Z,995.6
2016-11-03T02:13:27.593Z,995.6
2016-11-03T02:13:48.184Z,995.6
2016-11-03T02:14:08.757Z,995.5
2016-11-03T02:14:29.299Z,995.6
2016-11-03T02:14:49.854Z,995.5
2016-11-03T02:15:10.390Z,995.6
2016-11-03T02:15:30.928Z,995.6
2016-11-03T02:15:51.543Z,995.6
2016-11-03T02:16:12.104Z,995.6
2016-11-03T02:16:32.661Z,995.6
2016-11-03T02:16:53.208Z,995.5
2016-11-03T02:17:13.759Z,995.6
2016-11-03T02:17:34.309Z,995.6
2016-11-03T02:17:55.436Z,995.6
2016-11-03T02:18:15.983Z,995.6
2016-11-03T02:18:36.592Z,995.6
2016-11-03T02:18:57.160Z,995.6
2016-11-03T02:19:17.711Z,995.6
2016-11-03T02:19:38.303Z,995.6
2016-11-03T02:19:58.890Z,995.6
2016-11-03T02:20:19.449Z,995.6
2016-11-03T02:20:40.010Z,995.6
2016-11-03T02:21:00.551Z,995.7
2016-11-03T02:21:21.107Z,995.6
2016-11-03T02:21:41.648Z,995.6
2016-11-03T02:22:02.183Z,995.6
2016-11-03T02:22:22.727Z,995.6
2016-11-03T02:22:43.276Z,995.6
2016-11-03T02:23:03.857Z,995.7
2016-11-03T02:23:24.411Z,995.6
2016-11-03T02:23:44.960Z,995.7
2016-11-03T02:24:05.523Z,995.6
2016-11-03T02:24:26.074Z,995.7
2016-11-03T02:24:46.622Z,995.6
2016-11-03T02:25:07.178Z,995.6
2016-11-03T02:25:27.713Z,995.7
2016-11-03T02:25:48.298Z,995.7
2016-11-03T02:26:08.868Z,995.7
2016-11-03T02:26:29.405Z,995.7
2016-11-03T02:26:50.046Z,995.7
2016-11-03T02:27:10.597Z,995.7
2016-11-03T02:27:31.196Z,995.7
2016-11-03T02:27:51.757Z,995.7
2016-11-03T02:28:12.312Z,995.7
2016-11-03T02:28:32.893Z,995.7
2016-11-03T02:28:53.431Z,995.7
2016-11-03T02:29:13.991Z,995.7
2016-11-03T02:29:34.547Z,995.7
2016-11-03T02:29:55.100Z,995.7
2016-11-03T02:30:15.701Z,995.8
2016-11-03T02:30:36.243Z,995.8
2016-11-03T02:30:56.791Z,995.8
2016-11-03T02:31:17.369Z,995.8
2016-11-03T02:31:37.906Z,995.8
2016-11-03T02:31:58.506Z,995.8
2016-11-03T02:32:19.073Z,995.8
2016-11-03T02:32:39.615Z,995.8
2016-11-03T02:33:00.157Z,995.8
2016-11-03T02:33:20.711Z,995.8
2016-11-03T02:33:41.243Z,995.7
2016-11-03T02:34:01.799Z,995.7
2016-11-03T02:34:22.396Z,995.8
2016-11-03T02:34:42.944Z,995.8
2016-11-03T02:35:03.474Z,995.8
2016-11-03T02:35:24.046Z,995.9
2016-11-03T02:35:44.587Z,995.8
2016-11-03T02:36:05.146Z,995.9
2016-11-03T02:36:25.696Z,995.8
2016-11-03T02:36:46.218Z,995.9
2016-11-03T02:37:06.893Z,995.9
2016-11-03T02:37:27.464Z,995.9
2016-11-03T02:37:48.021Z,995.9
2016-11-03T02:38:08.570Z,995.9
2016-11-03T02:38:29.115Z,995.9
2016-11-03T02:38:49.712Z,995.9
2016-11-03T02:39:10.249Z,995.9
2016-11-03T02:39:30.788Z,995.9
2016-11-03T02:39:51.327Z,996
2016-11-03T02:40:11.902Z,995.9
2016-11-03T02:40:32.515Z,995.9
2016-11-03T02:40:53.065Z,995.9
2016-11-03T02:41:13.620Z,995.9
2016-11-03T02:41:34.206Z,995.9
2016-11-03T02:41:54.759Z,995.9
2016-11-03T02:42:15.347Z,995.9
2016-11-03T02:42:35.890Z,995.9
2016-11-03T02:42:56.420Z,995.9
2016-11-03T02:43:16.961Z,995.9
2016-11-03T02:43:37.538Z,995.9
2016-11-03T02:43:58.090Z,996
2016-11-03T02:44:18.638Z,995.9
2016-11-03T02:44:39.190Z,996
2016-11-03T02:44:59.782Z,996
2016-11-03T02:45:20.322Z,995.9
2016-11-03T02:45:40.972Z,995.9
2016-11-03T02:46:01.528Z,995.9
2016-11-03T02:46:22.105Z,995.9
2016-11-03T02:46:42.685Z,995.9
2016-11-03T02:47:03.256Z,995.9
2016-11-03T02:47:23.893Z,995.9
2016-11-03T02:47:44.451Z,995.9
2016-11-03T02:48:05.091Z,996
2016-11-03T02:48:25.648Z,996
2016-11-03T02:48:46.191Z,996
2016-11-03T02:49:06.743Z,996
2016-11-03T02:49:27.345Z,996
2016-11-03T02:49:47.891Z,996
2016-11-03T02:50:08.452Z,996
2016-11-03T02:50:29.008Z,996
2016-11-03T02:50:49.583Z,996
2016-11-03T02:51:10.135Z,996
2016-11-03T02:51:30.673Z,996
2016-11-03T02:51:51.235Z,996
2016-11-03T02:52:11.779Z,996
2016-11-03T02:52:32.363Z,996
2016-11-03T02:52:52.906Z,996
2016-11-03T02:53:13.457Z,996
2016-11-03T02:53:34.022Z,996
2016-11-03T02:53:54.559Z,996
2016-11-03T02:54:15.160Z,996
2016-11-03T02:54:35.721Z,996
2016-11-03T02:54:56.278Z,996.1
2016-11-03T02:55:16.828Z,996
2016-11-03T02:55:37.384Z,996
2016-11-03T02:55:57.924Z,996.1
2016-11-03T02:56:18.504Z,996
2016-11-03T02:56:39.058Z,996
2016-11-03T02:56:59.662Z,996
2016-11-03T02:57:20.224Z,996
2016-11-03T02:57:40.772Z,996.1
2016-11-03T02:58:01.355Z,996
2016-11-03T02:58:21.945Z,996
2016-11-03T02:58:42.488Z,996
2016-11-03T02:59:03.034Z,996
2016-11-03T02:59:23.575Z,996
2016-11-03T02:59:44.153Z,996.1
2016-11-03T03:00:04.729Z,996.1
2016-11-03T03:00:25.261Z,996.1
2016-11-03T03:00:45.804Z,996
2016-11-03T03:01:06.374Z,996.1
2016-11-03T03:01:26.939Z,996.1
2016-11-03T03:01:47.484Z,996.1
2016-11-03T03:02:08.037Z,996
2016-11-03T03:02:28.570Z,996.1
2016-11-03T03:02:49.111Z,996
2016-11-03T03:03:09.658Z,996.1
2016-11-03T03:03:30.224Z,996.1
2016-11-03T03:03:50.778Z,996
2016-11-03T03:04:11.304Z,996.1
2016-11-03T03:04:31.852Z,996.1
2016-11-03T03:04:52.374Z,996
2016-11-03T03:05:12.927Z,996.1
2016-11-03T03:05:33.466Z,996.1
2016-11-03T03:05:54.015Z,996.1
2016-11-03T03:06:14.560Z,996.1
2016-11-03T03:06:35.118Z,996.1
2016-11-03T03:06:55.652Z,996.1
2016-11-03T03:07:16.255Z,996.1
2016-11-03T03:07:36.849Z,996.1
2016-11-03T03:07:57.397Z,996.1
2016-11-03T03:08:17.998Z,996.1
2016-11-03T03:08:38.560Z,996.1
2016-11-03T03:08:59.096Z,996.1
2016-11-03T03:09:19.635Z,996.1
2016-11-03T03:09:40.188Z,996.1
2016-11-03T03:10:00.767Z,996.1
2016-11-03T03:10:21.295Z,996.1
2016-11-03T03:10:41.970Z,996.1
2016-11-03T03:11:02.504Z,996.1
2016-11-03T03:11:23.064Z,996.2
2016-11-03T03:11:43.604Z,996.1
2016-11-03T03:12:04.167Z,996.1
2016-11-03T03:12:24.717Z,996.1
2016-11-03T03:12:45.295Z,996.1
2016-11-03T03:13:05.865Z,996.1
2016-11-03T03:13:26.432Z,996.1
2016-11-03T03:13:46.996Z,996.1
2016-11-03T03:14:07.560Z,996.2
2016-11-03T03:14:28.112Z,996.1
2016-11-03T03:14:48.714Z,996.1
2016-11-03T03:15:09.251Z,996.1
2016-11-03T03:15:29.795Z,996.1
2016-11-03T03:15:50.372Z,996.1
2016-11-03T03:16:10.967Z,996.1
2016-11-03T03:16:31.537Z,996.2
2016-11-03T03:16:52.070Z,996.2
2016-11-03T03:17:12.627Z,996.1
2016-11-03T03:17:33.202Z,996.2
2016-11-03T03:17:53.744Z,996.2
2016-11-03T03:18:14.344Z,996.1
2016-11-03T03:18:34.884Z,996.1
2016-11-03T03:18:55.413Z,996.1
2016-11-03T03:19:15.961Z,996.2
2016-11-03T03:19:36.499Z,996.1
2016-11-03T03:19:57.041Z,996.2
2016-11-03T03:20:17.654Z,996.1
2016-11-03T03:20:38.240Z,996.1
2016-11-03T03:20:58.774Z,996.1
2016-11-03T03:21:19.318Z,996.1
2016-11-03T03:21:39.859Z,996.1
2016-11-03T03:22:00.398Z,996.1
2016-11-03T03:22:20.946Z,996.1
2016-11-03T03:22:41.478Z,996.1
2016-11-03T03:23:02.018Z,996.2
2016-11-03T03:23:22.592Z,996.1
2016-11-03T03:23:43.126Z,996.2
2016-11-03T03:24:03.680Z,996.2
2016-11-03T03:24:24.256Z,996.2
2016-11-03T03:24:44.819Z,996.2
2016-11-03T03:25:05.370Z,996.2
2016-11-03T03:25:25.912Z,996.2
2016-11-03T03:25:46.464Z,996.3
2016-11-03T03:26:07.025Z,996.2
2016-11-03T03:26:27.575Z,996.2
2016-11-03T03:26:48.160Z,996.2
2016-11-03T03:27:08.698Z,996.3
2016-11-03T03:27:29.252Z,996.3
2016-11-03T03:27:49.794Z,996.3
2016-11-03T03:28:10.331Z,996.3
2016-11-03T03:28:30.865Z,996.3
2016-11-03T03:28:51.411Z,996.3
2016-11-03T03:29:11.978Z,996.3
2016-11-03T03:29:32.551Z,996.3
2016-11-03T03:29:53.131Z,996.3
2016-11-03T03:30:13.703Z,996.3
2016-11-03T03:30:34.253Z,996.4
2016-11-03T03:30:54.836Z,996.4
2016-11-03T03:31:15.396Z,996.4
2016-11-03T03:31:36.010Z,996.4
2016-11-03T03:31:56.569Z,996.4
2016-11-03T03:32:17.114Z,996.4
2016-11-03T03:32:37.671Z,996.4
2016-11-03T03:32:58.205Z,996.4
2016-11-03T03:33:18.750Z,996.4
2016-11-03T03:33:39.292Z,996.4
2016-11-03T03:33:59.858Z,996.4
2016-11-03T03:34:20.406Z,996.4
2016-11-03T03:34:40.985Z,996.4
2016-11-03T03:35:01.566Z,996.4
2016-11-03T03:35:22.151Z,996.5
2016-11-03T03:35:42.680Z,996.5
2016-11-03T03:36:03.354Z,996.5
2016-11-03T03:36:23.904Z,996.4
2016-11-03T03:36:44.441Z,996.5
2016-11-03T03:37:05.020Z,996.4
2016-11-03T03:37:25.565Z,996.4
2016-11-03T03:37:46.138Z,996.4
2016-11-03T03:38:06.686Z,996.4
2016-11-03T03:38:27.243Z,996.5
2016-11-03T03:38:47.847Z,996.5
2016-11-03T03:39:08.384Z,996.4
2016-11-03T03:39:28.956Z,996.5
2016-11-03T03:39:49.513Z,996.4
2016-11-03T03:40:10.073Z,996.5
2016-11-03T03:40:30.607Z,996.4
2016-11-03T03:40:51.168Z,996.5
2016-11-03T03:41:11.741Z,996.4
2016-11-03T03:41:32.291Z,996.5
2016-11-03T03:41:52.828Z,996.5
2016-11-03T03:42:13.414Z,996.5
2016-11-03T03:42:33.952Z,996.5
2016-11-03T03:42:54.531Z,996.5
2016-11-03T03:43:15.083Z,996.5
2016-11-03T03:43:35.625Z,996.5
2016-11-03T03:43:56.202Z,996.5
2016-11-03T03:44:16.748Z,996.5
2016-11-03T03:44:37.286Z,996.5
2016-11-03T03:44:57.834Z,996.5
2016-11-03T03:45:18.394Z,996.5
2016-11-03T03:45:38.959Z,996.5
2016-11-03T03:45:59.530Z,996.5
2016-11-03T03:46:20.088Z,996.5
2016-11-03T03:46:40.658Z,996.5
2016-11-03T03:47:01.200Z,996.5
2016-11-03T03:47:21.788Z,996.5
2016-11-03T03:47:42.334Z,996.5
2016-11-03T03:48:02.909Z,996.5
2016-11-03T03:48:23.464Z,996.5
2016-11-03T03:48:44.010Z,996.5
2016-11-03T03:49:04.564Z,996.5
2016-11-03T03:49:25.127Z,996.5
2016-11-03T03:49:45.690Z,996.5
2016-11-03T03:50:06.223Z,996.5
2016-11-03T03:50:26.802Z,996.5
2016-11-03T03:50:47.349Z,996.5
2016-11-03T03:51:07.899Z,996.5
2016-11-03T03:51:28.459Z,996.5
2016-11-03T03:51:49.006Z,996.5
2016-11-03T03:52:09.543Z,996.5
2016-11-03T03:52:30.085Z,996.4
2016-11-03T03:52:50.649Z,996.5
2016-11-03T03:53:11.185Z,996.5
2016-11-03T03:53:31.735Z,996.5
2016-11-03T03:53:52.289Z,996.5
2016-11-03T03:54:12.902Z,996.4
2016-11-03T03:54:33.446Z,996.5
2016-11-03T03:54:54.026Z,996.5
2016-11-03T03:55:14.583Z,996.5
2016-11-03T03:55:35.133Z,996.5
2016-11-03T03:55:55.674Z,996.5
2016-11-03T03:56:16.237Z,996.5
2016-11-03T03:56:36.785Z,996.5
2016-11-03T03:56:57.330Z,996.5
2016-11-03T03:57:17.895Z,996.5
2016-11-03T03:57:38.490Z,996.5
2016-11-03T03:57:59.034Z,996.5
2016-11-03T03:58:19.587Z,996.5
2016-11-03T03:58:40.193Z,996.4
2016-11-03T03:59:00.740Z,996.5
2016-11-03T03:59:21.313Z,996.5
2016-11-03T03:59:41.857Z,996.5
2016-11-03T04:00:02.390Z,996.5
2016-11-03T04:00:22.950Z,996.5
2016-11-03T04:00:43.528Z,996.5
2016-11-03T04:01:04.065Z,996.5
2016-11-03T04:01:24.650Z,996.5
2016-11-03T04:01:45.193Z,996.5
2016-11-03T04:02:05.751Z,996.5
2016-11-03T04:02:26.309Z,996.5
2016-11-03T04:02:46.870Z,996.5
2016-11-03T04:03:07.444Z,996.5
2016-11-03T04:03:27.996Z,996.5
2016-11-03T04:03:48.551Z,996.5
2016-11-03T04:04:09.101Z,996.5
2016-11-03T04:04:29.692Z,996.5
2016-11-03T04:04:50.248Z,996.5
2016-11-03T04:05:10.798Z,996.5
2016-11-03T04:05:31.376Z,996.5
2016-11-03T04:05:51.977Z,996.5
2016-11-03T04:06:12.508Z,996.6
2016-11-03T04:06:33.091Z,996.5
2016-11-03T04:06:53.659Z,996.5
2016-11-03T04:07:14.190Z,996.5
2016-11-03T04:07:34.729Z,996.5
2016-11-03T04:07:55.287Z,996.5
2016-11-03T04:08:15.877Z,996.5
2016-11-03T04:08:36.436Z,996.5
2016-11-03T04:08:56.980Z,996.5
2016-11-03T04:09:17.561Z,996.5
2016-11-03T04:09:38.091Z,996.5
2016-11-03T04:09:58.675Z,996.6
2016-11-03T04:10:19.202Z,996.6
2016-11-03T04:10:39.752Z,996.6
2016-11-03T04:11:00.291Z,996.6
2016-11-03T04:11:20.904Z,996.5
2016-11-03T04:11:41.468Z,996.6
2016-11-03T04:12:02.017Z,996.6
2016-11-03T04:12:22.558Z,996.6
2016-11-03T04:12:43.090Z,996.6
2016-11-03T04:13:03.668Z,996.6
2016-11-03T04:13:24.218Z,996.6
2016-11-03T04:13:44.829Z,996.7
2016-11-03T04:14:05.378Z,996.7
2016-11-03T04:14:25.967Z,996.7
2016-11-03T04:14:46.517Z,996.7
2016-11-03T04:15:07.068Z,996.7
2016-11-03T04:15:27.645Z,996.7
2016-11-03T04:15:48.205Z,996.7
2016-11-03T04:16:08.732Z,996.7
2016-11-03T04:16:29.284Z,996.7
2016-11-03T04:16:49.851Z,996.7
2016-11-03T04:17:10.434Z,996.7
2016-11-03T04:17:30.991Z,996.7
2016-11-03T04:17:51.560Z,996.7
2016-11-03T04:18:12.220Z,996.7
2016-11-03T04:18:32.767Z,996.7
2016-11-03T04:18:53.334Z,996.7
2016-11-03T04:19:13.891Z,996.8
2016-11-03T04:19:34.429Z,996.7
2016-11-03T04:19:54.971Z,996.7
2016-11-03T04:20:15.556Z,996.7
2016-11-03T04:20:36.084Z,996.7
2016-11-03T04:20:56.637Z,996.7
2016-11-03T04:21:17.825Z,996.7
2016-11-03T04:21:38.372Z,996.7
2016-11-03T04:21:58.909Z,996.7
2016-11-03T04:22:19.480Z,996.7
2016-11-03T04:22:40.035Z,996.7
2016-11-03T04:23:00.576Z,996.7
2016-11-03T04:23:21.158Z,996.7
2016-11-03T04:23:41.705Z,996.7
2016-11-03T04:24:02.254Z,996.7
2016-11-03T04:24:22.801Z,996.7
2016-11-03T04:24:43.393Z,996.7
2016-11-03T04:25:03.940Z,996.7
2016-11-03T04:25:24.500Z,996.8
2016-11-03T04:25:45.050Z,996.7
2016-11-03T04:26:05.596Z,996.7
2016-11-03T04:26:26.166Z,996.7
2016-11-03T04:26:46.762Z,996.7